Darlag, China
Current Conditions -  °F | °C
As of 6:00 PM on Monday 26 Jan 2015 (Local Time) from ZLLL Reporting Station
Clear Clear  
Wind Chill: 16°   Ceiling: Unl
Heat Index: 27°   Visibility: 6mi
Dew Point:   Wind: 11mph
Humidity: 47%   Direction: 40°NE
Pressure: 30.15"   Gusts: NA
Location:  33.75°N, 99.65°E
Report Text: ZLLL 261000Z 04005MPS CAVOK M03/M13 Q1021 NOSIG
Loading
Personal Weather Stations






























Interactive Weather Map New forecast layout! Learn more

10-Day Weather Forecast

Advertisements
Track Severe Weather on mobile